createdAt,value
2018-07-24T00:04:39.657Z,9.67
2018-07-24T00:09:42.878Z,9.80
2018-07-24T00:14:46.082Z,9.83
2018-07-24T00:19:49.244Z,10.13
2018-07-24T00:24:52.461Z,11.10
2018-07-24T00:29:55.678Z,9.67
2018-07-24T00:34:59.014Z,9.83
2018-07-24T00:40:02.257Z,9.67
2018-07-24T00:45:14.826Z,9.90
2018-07-24T00:50:17.989Z,10.60
2018-07-24T00:55:21.178Z,10.20
2018-07-24T01:00:24.377Z,10.60
2018-07-24T01:05:27.533Z,11.07
2018-07-24T01:10:30.798Z,10.20
2018-07-24T01:15:33.797Z,11.10
2018-07-24T01:20:37.091Z,11.30
2018-07-24T01:25:40.269Z,10.90
2018-07-24T01:30:43.442Z,11.10
2018-07-24T01:35:46.610Z,11.60
2018-07-24T01:40:49.861Z,12.27
2018-07-24T01:45:53.063Z,11.37
2018-07-24T01:50:56.271Z,11.27
2018-07-24T01:55:59.421Z,11.27
2018-07-24T02:01:02.901Z,10.70
2018-07-24T02:06:06.362Z,11.40
2018-07-24T02:11:09.542Z,11.30
2018-07-24T02:16:12.764Z,11.07
2018-07-24T02:21:15.934Z,11.10
2018-07-24T02:26:19.101Z,11.40
2018-07-24T02:31:22.355Z,11.27
2018-07-24T02:36:25.601Z,11.40
2018-07-24T02:41:28.942Z,11.97
2018-07-24T02:46:32.163Z,11.80
2018-07-24T02:51:37.357Z,11.77
2018-07-24T02:56:40.541Z,10.80
2018-07-24T03:01:43.757Z,11.67
2018-07-24T03:06:46.919Z,11.73
2018-07-24T03:11:50.118Z,10.93
2018-07-24T03:16:53.343Z,11.47
2018-07-24T03:21:56.626Z,11.77
2018-07-24T03:26:59.854Z,11.90
2018-07-24T03:32:03.039Z,12.17
2018-07-24T03:37:06.222Z,12.03
2018-07-24T03:42:09.408Z,11.70
2018-07-24T03:47:12.611Z,10.93
2018-07-24T03:52:15.889Z,11.63
2018-07-24T03:57:19.045Z,10.73
2018-07-24T04:02:22.288Z,10.97
2018-07-24T04:07:25.491Z,11.00
2018-07-24T04:12:28.686Z,11.10
2018-07-24T04:17:32.961Z,11.33
2018-07-24T04:22:36.178Z,10.93
2018-07-24T04:27:39.173Z,11.77
2018-07-24T04:32:42.386Z,11.30
2018-07-24T04:37:45.579Z,11.10
2018-07-24T04:42:48.767Z,10.63
2018-07-24T04:47:52.010Z,12.87
2018-07-24T04:52:55.167Z,12.13
2018-07-24T04:57:58.322Z,10.80
2018-07-24T05:03:02.531Z,10.80
2018-07-24T05:08:09.558Z,11.40
2018-07-24T05:13:12.758Z,11.90
2018-07-24T05:18:15.973Z,11.50
2018-07-24T05:23:18.913Z,10.97
2018-07-24T05:28:22.063Z,11.73
2018-07-24T05:33:25.286Z,12.23
2018-07-24T05:38:28.493Z,12.37
2018-07-24T05:43:31.646Z,11.27
2018-07-24T05:48:34.851Z,11.23
2018-07-24T05:53:39.347Z,11.10
2018-07-24T05:58:42.525Z,11.60
2018-07-24T06:03:45.774Z,10.77
2018-07-24T06:08:48.946Z,8.77
2018-07-24T06:13:52.213Z,10.33
2018-07-24T06:18:55.358Z,10.43
2018-07-24T06:23:58.526Z,10.47
2018-07-24T06:29:01.710Z,10.70
2018-07-24T06:34:04.886Z,9.57
2018-07-24T06:39:10.113Z,8.93
2018-07-24T06:44:13.376Z,9.00
2018-07-24T06:49:16.476Z,9.10
2018-07-24T06:54:19.642Z,9.60
2018-07-24T06:59:22.922Z,8.17
2018-07-24T07:04:26.147Z,8.93
2018-07-24T07:09:29.351Z,7.67
2018-07-24T07:14:32.608Z,7.13
2018-07-24T07:19:35.858Z,7.73
2018-07-24T07:24:40.114Z,6.83
2018-07-24T07:29:43.277Z,5.67
2018-07-24T07:34:46.542Z,6.03
2018-07-24T07:39:49.583Z,6.80
2018-07-24T07:44:52.758Z,5.93
2018-07-24T07:49:57.977Z,4.87
2018-07-24T07:55:01.782Z,6.17
2018-07-24T08:00:09.170Z,4.97
2018-07-24T08:05:12.371Z,4.43
2018-07-24T08:10:15.558Z,5.20
2018-07-24T08:15:18.776Z,4.83
2018-07-24T08:20:21.919Z,4.90
2018-07-24T08:25:25.194Z,5.00
2018-07-24T08:30:28.354Z,4.80
2018-07-24T08:35:31.589Z,7.20
2018-07-24T08:40:35.247Z,4.50
2018-07-24T08:45:38.465Z,4.63
2018-07-24T08:50:41.646Z,4.53
2018-07-24T08:55:45.827Z,4.83
2018-07-24T09:00:48.900Z,4.83
2018-07-24T09:05:52.084Z,4.60
2018-07-24T09:10:55.289Z,4.10
2018-07-24T09:15:58.486Z,4.73
2018-07-24T09:21:02.509Z,4.30
2018-07-24T09:26:05.922Z,4.43
2018-07-24T09:31:09.610Z,4.37
2018-07-24T09:36:13.807Z,5.20
2018-07-24T09:41:17.054Z,4.60
2018-07-24T09:46:21.096Z,4.60
2018-07-24T09:51:24.367Z,4.67
2018-07-24T09:56:27.699Z,4.37
2018-07-24T10:01:33.750Z,4.97
2018-07-24T10:06:37.006Z,4.60
2018-07-24T10:11:40.302Z,4.40
2018-07-24T10:16:44.583Z,4.17
2018-07-24T10:21:48.041Z,4.50
2018-07-24T10:26:51.238Z,4.60
2018-07-24T10:31:54.470Z,4.67
2018-07-24T10:36:57.731Z,3.80
2018-07-24T10:42:00.953Z,4.47
2018-07-24T10:47:04.182Z,4.87
2018-07-24T10:52:07.395Z,4.33
2018-07-24T10:57:10.586Z,4.10
2018-07-24T11:02:14.792Z,4.43
2018-07-24T11:07:18.157Z,4.30
2018-07-24T11:12:23.558Z,4.17
2018-07-24T11:17:27.846Z,4.47
2018-07-24T11:22:31.077Z,4.20
2018-07-24T11:27:34.337Z,3.83
2018-07-24T11:32:37.560Z,4.00
2018-07-24T11:37:40.754Z,4.00
2018-07-24T11:42:44.608Z,4.17
2018-07-24T11:47:47.889Z,3.83
2018-07-24T11:52:51.114Z,3.80
2018-07-24T11:57:55.198Z,4.20
2018-07-24T12:02:59.230Z,4.10
2018-07-24T12:08:02.540Z,4.30
2018-07-24T12:13:05.826Z,3.90
2018-07-24T12:18:09.670Z,3.67
2018-07-24T12:23:14.910Z,3.73
2018-07-24T12:28:18.078Z,4.17
2018-07-24T12:33:21.282Z,3.63
2018-07-24T12:38:24.446Z,3.77
2018-07-24T12:43:27.818Z,3.57
2018-07-24T12:48:31.074Z,4.37
2018-07-24T12:53:34.273Z,4.77
2018-07-24T12:58:37.458Z,3.80
2018-07-24T13:03:40.625Z,3.83
2018-07-24T13:08:43.833Z,4.87
2018-07-24T13:13:47.096Z,4.60
2018-07-24T13:18:50.273Z,3.90
2018-07-24T13:23:53.514Z,3.80
2018-07-24T13:28:56.653Z,3.93
2018-07-24T13:33:59.938Z,3.73
2018-07-24T13:39:06.345Z,4.00
2018-07-24T13:44:09.895Z,3.97
2018-07-24T13:49:13.546Z,4.50
2018-07-24T13:54:16.746Z,4.70
2018-07-24T13:59:20.097Z,4.60
2018-07-24T14:04:23.969Z,4.33
2018-07-24T14:09:27.198Z,4.13
2018-07-24T14:14:30.424Z,4.80
2018-07-24T14:19:33.686Z,4.13
2018-07-24T14:24:37.877Z,4.93
2018-07-24T14:29:41.057Z,4.07
2018-07-24T14:34:44.502Z,4.13
2018-07-24T14:39:48.089Z,4.27
2018-07-24T14:44:51.315Z,4.57
2018-07-24T14:49:55.833Z,4.67
2018-07-24T14:54:59.481Z,4.40
2018-07-24T15:00:02.719Z,3.73
2018-07-24T15:05:06.078Z,4.10
2018-07-24T15:10:09.342Z,4.37
2018-07-24T15:15:12.554Z,4.37
2018-07-24T15:20:15.891Z,4.00
2018-07-24T15:25:20.088Z,4.27
2018-07-24T15:30:24.145Z,4.13
2018-07-24T15:35:27.455Z,4.07
2018-07-24T15:40:30.746Z,4.03
2018-07-24T15:45:33.954Z,4.40
2018-07-24T15:50:37.182Z,3.97
2018-07-24T15:55:40.535Z,4.93
2018-07-24T16:00:43.570Z,4.43
2018-07-24T16:05:46.813Z,4.17
2018-07-24T16:10:50.034Z,4.13
2018-07-24T16:15:53.316Z,4.43
2018-07-24T16:20:56.486Z,4.20
2018-07-24T16:25:59.714Z,4.33
2018-07-24T16:31:02.903Z,4.00
2018-07-24T16:36:06.961Z,3.93
2018-07-24T16:41:10.101Z,4.07
2018-07-24T16:46:13.339Z,4.40
2018-07-24T16:51:16.578Z,4.63
2018-07-24T16:56:19.810Z,4.30
2018-07-24T17:01:23.171Z,3.93
2018-07-24T17:06:26.582Z,4.27
2018-07-24T17:11:29.860Z,4.60
2018-07-24T17:16:34.110Z,4.17
2018-07-24T17:21:38.307Z,4.00
2018-07-24T17:26:41.463Z,6.40
2018-07-24T17:31:44.714Z,4.37
2018-07-24T17:36:47.993Z,4.67
2018-07-24T17:41:52.260Z,4.70
2018-07-24T17:46:55.389Z,4.30
2018-07-24T17:51:58.683Z,4.13
2018-07-24T17:57:01.994Z,4.80
2018-07-24T18:02:05.396Z,4.27
2018-07-24T18:07:08.625Z,4.23
2018-07-24T18:12:11.853Z,4.40
2018-07-24T18:17:15.061Z,4.97
2018-07-24T18:22:18.372Z,4.30
2018-07-24T18:27:21.535Z,3.97
2018-07-24T18:32:24.936Z,4.63
2018-07-24T18:37:28.078Z,4.73
2018-07-24T18:42:31.262Z,4.23
2018-07-24T18:47:34.501Z,4.70
2018-07-24T18:52:37.734Z,5.00
2018-07-24T18:57:41.202Z,6.00
2018-07-24T19:02:44.522Z,4.70
2018-07-24T19:07:47.749Z,4.83
2018-07-24T19:12:52.368Z,4.97
2018-07-24T19:17:55.639Z,5.27
2018-07-24T19:22:58.837Z,5.83
2018-07-24T19:28:02.325Z,5.03
2018-07-24T19:33:05.600Z,5.13
2018-07-24T19:38:09.179Z,5.57
2018-07-24T19:43:12.378Z,5.93
2018-07-24T19:48:15.641Z,5.97
2018-07-24T19:53:18.875Z,5.43
2018-07-24T19:58:22.070Z,6.43
2018-07-24T20:03:25.334Z,5.60
2018-07-24T20:08:28.591Z,5.77
2018-07-24T20:13:33.241Z,5.80
2018-07-24T20:18:36.596Z,5.83
2018-07-24T20:23:39.861Z,6.60
2018-07-24T20:28:43.112Z,6.67
2018-07-24T20:33:46.262Z,7.23
2018-07-24T20:38:49.617Z,6.70
2018-07-24T20:43:52.806Z,7.27
2018-07-24T20:48:56.177Z,10.10
2018-07-24T20:53:59.430Z,11.70
2018-07-24T20:59:02.739Z,8.07
2018-07-24T21:04:05.949Z,7.70
2018-07-24T21:09:09.741Z,7.20
2018-07-24T21:14:12.910Z,6.80
2018-07-24T21:19:16.194Z,8.07
2018-07-24T21:24:19.485Z,7.70
2018-07-24T21:29:22.791Z,8.03
2018-07-24T21:34:26.003Z,7.43
2018-07-24T21:39:29.197Z,8.53
2018-07-24T21:44:32.401Z,7.80
2018-07-24T21:49:35.574Z,7.63
2018-07-24T21:54:38.830Z,8.17
2018-07-24T21:59:41.993Z,7.90
2018-07-24T22:04:45.249Z,7.30
2018-07-24T22:09:48.481Z,7.30
2018-07-24T22:14:51.667Z,7.13
2018-07-24T22:19:54.858Z,7.27
2018-07-24T22:24:58.052Z,7.83
2018-07-24T22:30:02.442Z,7.43
2018-07-24T22:35:05.851Z,7.93
2018-07-24T22:40:10.668Z,7.13
2018-07-24T22:45:13.857Z,7.70
2018-07-24T22:50:17.037Z,7.73
2018-07-24T22:55:20.745Z,7.87
2018-07-24T23:00:24.157Z,8.33
2018-07-24T23:05:27.334Z,8.13
2018-07-24T23:10:33.292Z,7.97
2018-07-24T23:15:36.561Z,7.93
2018-07-24T23:20:39.689Z,8.50
2018-07-24T23:25:42.877Z,7.90
2018-07-24T23:30:46.055Z,7.87
2018-07-24T23:35:49.206Z,6.10
2018-07-24T23:40:52.462Z,6.83
2018-07-24T23:45:55.708Z,6.93
2018-07-24T23:50:58.870Z,6.53
2018-07-24T23:56:03.101Z,6.80
